createdAt,value
2023-04-05T00:02:18.854Z,98.00
2023-04-05T00:04:52.152Z,98.30
2023-04-05T00:07:21.666Z,98.10
2023-04-05T00:09:49.574Z,98.10
2023-04-05T00:12:16.772Z,98.30
2023-04-05T00:14:43.733Z,98.30
2023-04-05T00:17:12.542Z,98.40
2023-04-05T00:19:39.968Z,98.30
2023-04-05T00:22:10.554Z,98.30
2023-04-05T00:24:39.104Z,98.20
2023-04-05T00:27:06.104Z,98.40
2023-04-05T00:29:33.112Z,98.40
2023-04-05T00:31:59.991Z,98.20
2023-04-05T00:34:27.112Z,98.20
2023-04-05T00:36:53.959Z,98.20
2023-04-05T00:39:20.912Z,98.20
2023-04-05T00:41:48.813Z,98.10
2023-04-05T00:44:15.924Z,98.40
2023-04-05T00:46:42.874Z,98.30
2023-04-05T00:49:09.841Z,98.50
2023-04-05T00:51:38.100Z,98.60
2023-04-05T00:54:06.320Z,99.10
2023-04-05T00:56:33.286Z,98.60
2023-04-05T00:59:00.883Z,98.40
2023-04-05T01:01:28.777Z,98.30
2023-04-05T01:04:03.756Z,98.30
2023-04-05T01:07:07.472Z,98.40
2023-04-05T01:09:45.662Z,98.20
2023-04-05T01:12:18.390Z,98.20
2023-04-05T01:14:50.366Z,98.40
2023-04-05T01:17:22.857Z,98.30
2023-04-05T01:19:53.558Z,98.30
2023-04-05T01:22:52.811Z,98.30
2023-04-05T01:25:41.575Z,98.10
2023-04-05T01:28:33.898Z,98.40
2023-04-05T01:31:08.955Z,98.20
2023-04-05T01:33:44.372Z,98.30
2023-04-05T01:36:41.697Z,98.20
2023-04-05T01:39:11.670Z,97.90
2023-04-05T01:41:40.525Z,97.80
2023-04-05T01:44:07.561Z,97.70
2023-04-05T01:46:34.626Z,98.30
2023-04-05T01:49:01.503Z,98.40
2023-04-05T01:51:28.425Z,98.20
2023-04-05T01:53:55.311Z,98.50
2023-04-05T01:56:22.136Z,98.50
2023-04-05T01:58:49.020Z,98.30
2023-04-05T02:01:16.272Z,98.50
2023-04-05T02:03:43.328Z,99.10
2023-04-05T02:06:10.288Z,99.90
2023-04-05T02:08:37.176Z,99.90
2023-04-05T02:11:03.978Z,99.90
2023-04-05T02:13:31.138Z,99.90
2023-04-05T02:15:58.026Z,99.90
2023-04-05T02:18:30.099Z,99.90
2023-04-05T02:21:08.000Z,99.90
2023-04-05T02:23:35.494Z,99.90
2023-04-05T02:26:02.399Z,99.90
2023-04-05T02:28:29.371Z,99.90
2023-04-05T02:30:56.295Z,99.90
2023-04-05T02:33:23.333Z,99.90
2023-04-05T02:35:52.108Z,99.90
2023-04-05T02:38:19.160Z,99.90
2023-04-05T02:40:49.637Z,99.90
2023-04-05T02:43:16.848Z,99.90
2023-04-05T02:45:46.291Z,99.90
2023-04-05T02:48:13.879Z,99.90
2023-04-05T02:50:40.908Z,99.90
2023-04-05T02:53:08.231Z,99.90
2023-04-05T02:55:35.032Z,99.90
2023-04-05T02:58:02.017Z,99.90
2023-04-05T03:00:29.130Z,99.90
2023-04-05T03:02:56.732Z,99.90
2023-04-05T03:05:23.711Z,99.90
2023-04-05T03:07:52.036Z,99.90
2023-04-05T03:10:22.564Z,99.90
2023-04-05T03:12:51.506Z,99.90
2023-04-05T03:15:18.463Z,99.90
2023-04-05T03:17:45.899Z,99.90
2023-04-05T03:20:13.224Z,99.90
2023-04-05T03:22:41.122Z,99.90
2023-04-05T03:25:08.135Z,99.90
2023-04-05T03:27:35.109Z,99.90
2023-04-05T03:30:02.221Z,99.90
2023-04-05T03:32:29.145Z,99.90
2023-04-05T03:34:56.037Z,99.90
2023-04-05T03:37:22.865Z,99.90
2023-04-05T03:39:49.817Z,99.90
2023-04-05T03:42:17.713Z,99.90
2023-04-05T03:44:44.762Z,99.90
2023-04-05T03:47:13.194Z,99.90
2023-04-05T03:49:41.090Z,99.90
2023-04-05T03:52:08.697Z,99.90
2023-04-05T03:54:35.950Z,99.90
2023-04-05T03:57:03.136Z,99.90
2023-04-05T03:59:30.056Z,99.90
2023-04-05T04:01:57.136Z,99.90
2023-04-05T04:04:24.014Z,99.90
2023-04-05T04:06:51.606Z,99.90
2023-04-05T04:09:18.483Z,99.90
2023-04-05T04:11:45.298Z,99.90
2023-04-05T04:14:12.228Z,99.90
2023-04-05T04:16:39.134Z,99.90
2023-04-05T04:19:06.088Z,99.90
2023-04-05T04:21:33.797Z,99.90
2023-04-05T04:24:00.962Z,99.90
2023-04-05T04:26:29.095Z,99.90
2023-04-05T04:28:56.755Z,99.90
2023-04-05T04:31:23.705Z,99.90
2023-04-05T04:33:50.856Z,99.90
2023-04-05T04:36:26.570Z,99.90
2023-04-05T04:38:53.825Z,99.90
2023-04-05T04:41:22.629Z,99.90
2023-04-05T04:43:49.539Z,99.90
2023-04-05T04:46:18.991Z,99.90
2023-04-05T04:48:46.712Z,99.90
2023-04-05T04:51:13.602Z,99.90
2023-04-05T04:53:40.670Z,99.90
2023-04-05T04:56:08.762Z,99.90
2023-04-05T04:58:36.016Z,99.90
2023-04-05T05:01:08.990Z,99.90
2023-04-05T05:03:38.702Z,99.90
2023-04-05T05:06:06.345Z,99.90
2023-04-05T05:08:33.298Z,99.90
2023-04-05T05:11:01.127Z,99.90
2023-04-05T05:13:27.987Z,99.90
2023-04-05T05:15:54.941Z,99.90
2023-04-05T05:18:21.788Z,99.90
2023-04-05T05:20:51.807Z,99.90
2023-04-05T05:23:18.866Z,99.90
2023-04-05T05:25:45.702Z,99.90
2023-04-05T05:28:12.634Z,99.90
2023-04-05T05:30:39.727Z,99.90
2023-04-05T05:33:07.207Z,99.90
2023-04-05T05:35:34.775Z,99.90
2023-04-05T05:38:02.754Z,99.90
2023-04-05T05:40:29.618Z,99.90
2023-04-05T05:42:56.512Z,99.90
2023-04-05T05:45:23.337Z,99.90
2023-04-05T05:47:50.498Z,99.90
2023-04-05T05:50:17.594Z,99.90
2023-04-05T05:52:44.390Z,99.90
2023-04-05T05:55:11.609Z,99.90
2023-04-05T05:57:38.886Z,99.90
2023-04-05T06:00:10.798Z,99.90
2023-04-05T06:02:37.830Z,99.90
2023-04-05T06:05:05.138Z,99.90
2023-04-05T06:07:35.965Z,99.90
2023-04-05T06:10:03.673Z,99.90
2023-04-05T06:12:30.629Z,99.90
2023-04-05T06:14:57.457Z,99.90
2023-04-05T06:17:24.552Z,99.90
2023-04-05T06:19:51.858Z,99.90
2023-04-05T06:22:19.612Z,99.90
2023-04-05T06:24:46.512Z,99.90
2023-04-05T06:27:14.713Z,99.90
2023-04-05T06:29:41.755Z,99.90
2023-04-05T06:32:08.667Z,99.90
2023-04-05T06:34:35.584Z,99.90
2023-04-05T06:37:02.859Z,99.90
2023-04-05T06:39:29.776Z,99.90
2023-04-05T06:41:56.718Z,99.90
2023-04-05T06:44:23.759Z,99.90
2023-04-05T06:46:50.751Z,98.00
2023-04-05T06:49:17.566Z,99.40
2023-04-05T06:51:44.571Z,97.60
2023-04-05T06:54:11.966Z,98.20
2023-04-05T06:56:39.121Z,98.50
2023-04-05T06:59:06.313Z,98.40
2023-04-05T07:01:33.692Z,99.40
2023-04-05T07:04:00.935Z,99.90
2023-04-05T07:06:27.957Z,99.90
2023-04-05T07:08:54.813Z,99.90
2023-04-05T07:11:21.612Z,99.90
2023-04-05T07:13:48.544Z,99.90
2023-04-05T07:16:15.749Z,99.40
2023-04-05T07:18:42.829Z,97.60
2023-04-05T07:21:09.667Z,97.00
2023-04-05T07:23:36.539Z,95.60
2023-04-05T07:26:08.042Z,93.70
2023-04-05T07:28:35.911Z,92.20
2023-04-05T07:31:04.565Z,93.50
2023-04-05T07:33:31.555Z,93.60
2023-04-05T07:35:58.735Z,94.50
2023-04-05T07:38:27.275Z,93.40
2023-04-05T07:40:54.175Z,93.30
2023-04-05T07:43:21.204Z,93.20
2023-04-05T07:45:48.232Z,92.10
2023-04-05T07:48:15.540Z,89.20
2023-04-05T07:50:47.927Z,73.00
2023-04-05T07:53:15.518Z,64.30
2023-04-05T07:55:42.877Z,56.40
2023-04-05T07:58:10.950Z,53.30
2023-04-05T08:00:38.585Z,53.90
2023-04-05T08:03:05.833Z,53.30
2023-04-05T08:05:32.988Z,48.20
2023-04-05T08:07:59.961Z,44.30
2023-04-05T08:10:27.197Z,41.80
2023-04-05T08:12:54.426Z,41.60
2023-04-05T08:15:21.743Z,41.30
2023-04-05T08:17:48.612Z,39.60
2023-04-05T08:20:15.739Z,39.80
2023-04-05T08:22:42.709Z,39.10
2023-04-05T08:25:09.790Z,40.10
2023-04-05T08:27:36.597Z,38.50
2023-04-05T08:30:04.202Z,36.70
2023-04-05T08:32:32.004Z,37.00
2023-04-05T08:34:58.917Z,35.70
2023-04-05T08:37:26.112Z,38.70
2023-04-05T08:39:53.164Z,36.10
2023-04-05T08:42:29.856Z,36.40
2023-04-05T08:44:59.795Z,36.40
2023-04-05T08:47:27.945Z,36.20
2023-04-05T08:49:54.992Z,35.00
2023-04-05T08:52:22.244Z,36.30
2023-04-05T08:54:50.828Z,34.70
2023-04-05T08:57:18.984Z,33.70
2023-04-05T08:59:46.532Z,35.90
2023-04-05T09:02:19.784Z,33.00
2023-04-05T09:04:48.521Z,34.00
2023-04-05T09:07:15.797Z,32.90
2023-04-05T09:09:46.715Z,33.70
2023-04-05T09:12:14.406Z,34.80
2023-04-05T09:14:43.077Z,34.50
2023-04-05T09:17:10.559Z,33.80
2023-04-05T09:19:38.029Z,33.70
2023-04-05T09:22:08.731Z,34.00
2023-04-05T09:24:43.960Z,33.20
2023-04-05T09:27:15.819Z,34.40
2023-04-05T09:29:48.072Z,35.60
2023-04-05T09:32:16.546Z,34.40
2023-04-05T09:34:44.140Z,34.20
2023-04-05T09:37:19.618Z,34.90
2023-04-05T09:39:52.155Z,36.90
2023-04-05T09:42:22.870Z,36.10
2023-04-05T09:45:02.579Z,35.90
2023-04-05T09:47:34.183Z,37.20
2023-04-05T09:50:18.395Z,35.80
2023-04-05T09:52:45.655Z,34.00
2023-04-05T09:55:13.095Z,35.60
2023-04-05T09:57:43.673Z,38.30
2023-04-05T10:00:22.472Z,39.20
2023-04-05T10:02:54.253Z,41.90
2023-04-05T10:05:25.172Z,42.80
2023-04-05T10:07:52.703Z,45.10
2023-04-05T10:10:21.834Z,47.80
2023-04-05T10:12:50.357Z,51.50
2023-04-05T10:15:19.009Z,51.90
2023-04-05T10:17:49.638Z,52.90
2023-04-05T10:20:17.953Z,53.90
2023-04-05T10:23:07.230Z,53.90
2023-04-05T10:25:33.987Z,52.50
2023-04-05T10:28:06.296Z,53.70
2023-04-05T10:30:48.132Z,53.00
2023-04-05T10:33:45.599Z,53.30
2023-04-05T10:36:38.235Z,55.40
2023-04-05T10:39:17.523Z,57.90
2023-04-05T10:41:54.541Z,57.30
2023-04-05T10:44:26.204Z,57.90
2023-04-05T10:46:55.602Z,56.50
2023-04-05T10:49:36.612Z,59.30
2023-04-05T10:52:04.599Z,62.20
2023-04-05T10:54:37.063Z,61.40
2023-04-05T10:57:09.325Z,60.90
2023-04-05T10:59:42.091Z,58.80
2023-04-05T11:02:09.569Z,59.90
2023-04-05T11:04:37.689Z,61.00
2023-04-05T11:07:19.687Z,65.60
2023-04-05T11:09:58.446Z,62.40
2023-04-05T11:12:47.137Z,63.10
2023-04-05T11:15:30.158Z,65.00
2023-04-05T11:18:08.626Z,64.30
2023-04-05T11:20:51.811Z,60.50
2023-04-05T11:23:24.681Z,60.80
2023-04-05T11:25:57.772Z,64.80
2023-04-05T11:28:37.806Z,62.20
2023-04-05T11:31:18.006Z,62.60
2023-04-05T11:33:51.763Z,64.40
2023-04-05T11:36:39.124Z,65.30
2023-04-05T11:39:24.028Z,63.50
2023-04-05T11:41:58.507Z,67.30
2023-04-05T11:44:25.690Z,65.50
2023-04-05T11:46:53.894Z,63.50
2023-04-05T11:49:25.407Z,64.80
2023-04-05T11:51:53.487Z,62.50
2023-04-05T11:54:29.957Z,68.60
2023-04-05T11:56:56.966Z,67.20
2023-04-05T11:59:34.969Z,63.40
2023-04-05T12:02:05.537Z,61.30
2023-04-05T12:04:32.509Z,65.30
2023-04-05T12:07:37.061Z,67.00
2023-04-05T12:10:15.811Z,67.20
2023-04-05T12:12:44.327Z,64.20
2023-04-05T12:15:14.620Z,62.10
2023-04-05T12:17:42.897Z,61.80
2023-04-05T12:20:11.933Z,63.10
2023-04-05T12:22:40.480Z,63.20
2023-04-05T12:25:09.072Z,62.10
2023-04-05T12:27:36.207Z,63.60
2023-04-05T12:30:16.857Z,62.00
2023-04-05T12:32:57.307Z,63.50
2023-04-05T12:35:35.129Z,66.70
2023-04-05T12:38:03.578Z,67.80
2023-04-05T12:40:32.813Z,64.40
2023-04-05T12:43:08.327Z,63.50
2023-04-05T12:45:43.282Z,63.30
2023-04-05T12:48:13.743Z,62.90
2023-04-05T12:50:48.633Z,64.70
2023-04-05T12:53:21.197Z,62.50
2023-04-05T12:55:54.146Z,63.30
2023-04-05T12:58:23.347Z,65.00
2023-04-05T13:00:50.406Z,65.00
2023-04-05T13:03:21.104Z,62.80
2023-04-05T13:05:49.374Z,61.20
2023-04-05T13:08:18.421Z,63.20
2023-04-05T13:10:46.917Z,62.40
2023-04-05T13:13:18.232Z,65.10
2023-04-05T13:15:45.740Z,64.40
2023-04-05T13:18:16.036Z,63.90
2023-04-05T13:20:43.673Z,64.10
2023-04-05T13:23:12.147Z,64.10
2023-04-05T13:25:45.601Z,66.60
2023-04-05T13:28:12.754Z,65.00
2023-04-05T13:30:39.696Z,62.50
2023-04-05T13:33:06.722Z,63.70
2023-04-05T13:35:34.005Z,63.60
2023-04-05T13:38:04.220Z,65.40
2023-04-05T13:40:32.334Z,63.60
2023-04-05T13:42:59.343Z,66.70
2023-04-05T13:45:26.351Z,64.80
2023-04-05T13:47:53.376Z,67.10
2023-04-05T13:50:20.343Z,65.10
2023-04-05T13:52:47.323Z,66.70
2023-04-05T13:55:15.147Z,66.90
2023-04-05T13:57:42.198Z,67.10
2023-04-05T14:00:09.737Z,65.10
2023-04-05T14:02:36.957Z,66.00
2023-04-05T14:05:04.031Z,65.60
2023-04-05T14:07:31.178Z,64.00
2023-04-05T14:09:58.147Z,63.30
2023-04-05T14:12:25.098Z,65.70
2023-04-05T14:14:52.003Z,66.00
2023-04-05T14:17:18.902Z,63.10
2023-04-05T14:19:46.018Z,63.60
2023-04-05T14:22:12.948Z,64.60
2023-04-05T14:24:39.902Z,65.70
2023-04-05T14:27:06.791Z,65.40
2023-04-05T14:29:33.801Z,63.70
2023-04-05T14:32:00.928Z,65.10
2023-04-05T14:34:27.968Z,65.50
2023-04-05T14:36:58.309Z,64.00
2023-04-05T14:39:25.322Z,64.70
2023-04-05T14:41:52.963Z,62.50
2023-04-05T14:44:20.039Z,62.60
2023-04-05T14:46:48.209Z,63.30
2023-04-05T14:49:15.890Z,64.80
2023-04-05T14:51:42.798Z,63.80
2023-04-05T14:54:09.907Z,62.30
2023-04-05T14:56:37.064Z,64.30
2023-04-05T14:59:04.177Z,62.50
2023-04-05T15:01:31.953Z,62.90
2023-04-05T15:03:59.123Z,62.70
2023-04-05T15:06:26.285Z,61.30
2023-04-05T15:08:53.263Z,62.40
2023-04-05T15:11:21.738Z,61.50
2023-04-05T15:13:48.699Z,61.90
2023-04-05T15:16:15.708Z,61.10
2023-04-05T15:18:42.745Z,61.90
2023-04-05T15:21:09.832Z,61.10
2023-04-05T15:23:36.856Z,60.50
2023-04-05T15:26:03.789Z,62.50
2023-04-05T15:28:31.063Z,61.80
2023-04-05T15:30:58.044Z,60.80
2023-04-05T15:33:25.306Z,60.20
2023-04-05T15:35:52.165Z,59.70
2023-04-05T15:38:19.151Z,60.00
2023-04-05T15:40:52.811Z,60.30
2023-04-05T15:43:20.970Z,58.80
2023-04-05T15:45:48.028Z,58.70
2023-04-05T15:48:15.483Z,58.30
2023-04-05T15:50:42.750Z,59.60
2023-04-05T15:53:09.800Z,58.70
2023-04-05T15:55:36.720Z,58.10
2023-04-05T15:58:03.756Z,57.20
2023-04-05T16:00:30.664Z,56.80
2023-04-05T16:05:26.313Z,56.60
2023-04-05T16:07:53.286Z,55.10
2023-04-05T16:10:20.200Z,55.20
2023-04-05T16:12:47.213Z,56.30
2023-04-05T16:15:14.429Z,56.20
2023-04-05T16:17:41.533Z,56.10
2023-04-05T16:20:08.733Z,56.00
2023-04-05T16:22:35.807Z,56.40
2023-04-05T16:25:02.676Z,56.30
2023-04-05T16:27:29.647Z,54.30
2023-04-05T16:29:56.558Z,53.70
2023-04-05T16:32:23.650Z,56.10
2023-04-05T16:34:50.808Z,56.20
2023-04-05T16:37:17.715Z,56.50
2023-04-05T16:39:44.613Z,56.70
2023-04-05T16:42:11.513Z,56.10
2023-04-05T16:44:38.420Z,57.50
2023-04-05T16:47:06.420Z,57.00
2023-04-05T16:49:33.341Z,56.60
2023-04-05T16:52:00.296Z,57.40
2023-04-05T16:54:27.196Z,56.00
2023-04-05T16:56:54.215Z,55.00
2023-04-05T16:59:21.131Z,55.90
2023-04-05T17:01:48.186Z,55.60
2023-04-05T17:04:15.137Z,54.60
2023-04-05T17:06:43.999Z,54.00
2023-04-05T17:09:10.929Z,55.10
2023-04-05T17:11:37.860Z,53.90
2023-04-05T17:14:05.632Z,52.80
2023-04-05T17:16:32.648Z,52.60
2023-04-05T17:19:00.680Z,52.90
2023-04-05T17:21:27.644Z,53.00
2023-04-05T17:23:54.735Z,52.70
2023-04-05T17:26:23.836Z,53.40
2023-04-05T17:28:50.836Z,52.60
2023-04-05T17:31:19.026Z,52.40
2023-04-05T17:33:48.356Z,52.80
2023-04-05T17:36:17.286Z,52.40
2023-04-05T17:38:44.607Z,50.60
2023-04-05T17:41:11.802Z,51.10
2023-04-05T17:43:38.779Z,51.60
2023-04-05T17:46:05.787Z,53.00
2023-04-05T17:48:32.995Z,53.50
2023-04-05T17:51:05.287Z,53.70
2023-04-05T17:53:32.245Z,53.60
2023-04-05T17:55:59.376Z,54.10
2023-04-05T17:58:26.692Z,54.00
2023-04-05T18:00:53.679Z,55.00
2023-04-05T18:03:20.812Z,56.20
2023-04-05T18:05:55.220Z,56.40
2023-04-05T18:08:23.066Z,58.90
2023-04-05T18:10:56.708Z,58.70
2023-04-05T18:13:24.183Z,61.00
2023-04-05T18:15:55.209Z,63.50
2023-04-05T18:18:22.594Z,63.90
2023-04-05T18:20:51.067Z,65.10
2023-04-05T18:23:18.775Z,65.60
2023-04-05T18:25:45.786Z,66.30
2023-04-05T18:28:22.293Z,67.70
2023-04-05T18:30:51.234Z,70.30
2023-04-05T18:33:18.739Z,71.40
2023-04-05T18:35:50.246Z,74.40
2023-04-05T18:38:17.289Z,74.00
2023-04-05T18:40:44.314Z,77.40
2023-04-05T18:43:11.937Z,77.90
2023-04-05T18:45:39.019Z,79.70
2023-04-05T18:48:06.292Z,80.60
2023-04-05T18:50:34.521Z,82.90
2023-04-05T18:53:02.384Z,84.80
2023-04-05T18:55:29.317Z,89.10
2023-04-05T18:57:56.838Z,89.70
2023-04-05T19:00:23.891Z,91.40
2023-04-05T19:02:51.079Z,92.60
2023-04-05T19:05:18.196Z,94.20
2023-04-05T19:07:45.319Z,94.40
2023-04-05T19:10:12.298Z,94.90
2023-04-05T19:12:39.219Z,96.00
2023-04-05T19:15:07.407Z,97.90
2023-04-05T19:17:34.550Z,97.90
2023-04-05T19:20:01.520Z,98.40
2023-04-05T19:22:28.408Z,99.90
2023-04-05T19:24:55.402Z,99.90
2023-04-05T19:27:22.376Z,99.90
2023-04-05T19:29:49.353Z,99.90
2023-04-05T19:32:16.379Z,99.90
2023-04-05T19:34:43.278Z,99.90
2023-04-05T19:37:10.392Z,99.90
2023-04-05T19:39:37.310Z,99.90
2023-04-05T19:42:05.431Z,99.90
2023-04-05T19:44:48.238Z,99.90
2023-04-05T19:47:17.671Z,99.90
2023-04-05T19:49:44.626Z,99.90
2023-04-05T19:52:15.975Z,99.90
2023-04-05T19:54:46.416Z,99.90
2023-04-05T19:57:19.261Z,99.90
2023-04-05T19:59:46.838Z,99.90
2023-04-05T20:02:36.333Z,99.90
2023-04-05T20:05:13.682Z,99.90
2023-04-05T20:07:40.870Z,99.90
2023-04-05T20:10:16.137Z,99.90
2023-04-05T20:12:43.060Z,99.90
2023-04-05T20:15:12.834Z,99.90
2023-04-05T20:17:42.488Z,99.90
2023-04-05T20:20:11.186Z,99.90
2023-04-05T20:22:38.768Z,99.90
2023-04-05T20:25:42.860Z,99.90
2023-04-05T20:28:28.247Z,99.90
2023-04-05T20:30:55.606Z,99.90
2023-04-05T20:33:36.139Z,99.90
2023-04-05T20:36:10.846Z,99.90
2023-04-05T20:38:42.156Z,99.90
2023-04-05T20:41:11.589Z,99.90
2023-04-05T20:43:40.027Z,99.90
2023-04-05T20:46:08.172Z,99.90
2023-04-05T20:48:36.199Z,99.90
2023-04-05T20:51:07.609Z,99.90
2023-04-05T20:53:36.196Z,99.90
2023-04-05T20:56:05.137Z,99.90
2023-04-05T20:58:32.809Z,99.90
2023-04-05T21:01:03.013Z,99.90
2023-04-05T21:03:32.321Z,99.90
2023-04-05T21:06:01.183Z,99.90
2023-04-05T21:08:29.943Z,99.90
2023-04-05T21:10:57.428Z,99.90
2023-04-05T21:13:25.616Z,99.90
2023-04-05T21:15:54.580Z,99.90
2023-04-05T21:18:22.797Z,99.90
2023-04-05T21:20:51.018Z,99.90
2023-04-05T21:23:23.034Z,99.90
2023-04-05T21:25:50.363Z,99.90
2023-04-05T21:28:17.464Z,99.90
2023-04-05T21:30:45.004Z,99.90
2023-04-05T21:33:12.687Z,99.90
2023-04-05T21:35:40.348Z,99.90
2023-04-05T21:38:07.742Z,99.90
2023-04-05T21:40:35.402Z,99.90
2023-04-05T21:43:02.436Z,99.90
2023-04-05T21:45:29.387Z,99.90
2023-04-05T21:47:56.321Z,99.90
2023-04-05T21:50:23.420Z,99.90
2023-04-05T21:52:50.294Z,99.90
2023-04-05T21:55:17.260Z,99.90
2023-04-05T21:57:44.310Z,99.90
2023-04-05T22:00:12.067Z,99.90
2023-04-05T22:02:39.758Z,99.90
2023-04-05T22:05:07.996Z,99.90
2023-04-05T22:07:35.670Z,99.90
2023-04-05T22:10:03.257Z,99.90
2023-04-05T22:12:30.679Z,99.90
2023-04-05T22:14:57.688Z,99.90
2023-04-05T22:17:24.718Z,99.90
2023-04-05T22:19:51.807Z,99.90
2023-04-05T22:22:19.339Z,99.90
2023-04-05T22:24:46.318Z,99.90
2023-04-05T22:27:13.311Z,99.90
2023-04-05T22:29:40.536Z,99.90
2023-04-05T22:32:07.710Z,99.90
2023-04-05T22:34:34.781Z,99.90
2023-04-05T22:37:01.712Z,99.90
2023-04-05T22:39:28.742Z,99.90
2023-04-05T22:41:56.642Z,99.90
2023-04-05T22:44:24.540Z,99.90
2023-04-05T22:46:51.564Z,99.90
2023-04-05T22:49:18.527Z,99.90
2023-04-05T22:51:45.615Z,99.90
2023-04-05T22:54:12.550Z,99.90
2023-04-05T22:56:39.540Z,99.90
2023-04-05T22:59:06.937Z,99.90
2023-04-05T23:01:34.322Z,99.90
2023-04-05T23:04:01.572Z,99.90
2023-04-05T23:06:28.537Z,99.90
2023-04-05T23:08:55.473Z,99.90
2023-04-05T23:11:22.556Z,99.90
2023-04-05T23:13:49.841Z,99.90
2023-04-05T23:16:17.077Z,99.90
2023-04-05T23:18:44.048Z,99.90
2023-04-05T23:21:11.210Z,99.90
2023-04-05T23:23:38.209Z,99.90
2023-04-05T23:26:05.389Z,99.90
2023-04-05T23:28:32.253Z,99.90
2023-04-05T23:30:59.260Z,99.90
2023-04-05T23:33:26.115Z,99.90
2023-04-05T23:35:53.150Z,99.90
2023-04-05T23:38:20.114Z,99.90
2023-04-05T23:40:47.060Z,99.90
2023-04-05T23:43:14.060Z,99.90
2023-04-05T23:45:41.274Z,99.90
2023-04-05T23:48:08.315Z,99.90
2023-04-05T23:50:35.501Z,99.90
2023-04-05T23:53:02.928Z,99.90
2023-04-05T23:55:31.877Z,99.90
2023-04-05T23:58:00.144Z,99.90
